sensor_id;sensor_type;location;lat;lon;timestamp;P1;durP1;ratioP1;P2;durP2;ratioP2
5543;SDS011;2795;47.652;13.128;2022-08-21T00:01:38;21.00;;;6.23;;
5543;SDS011;2795;47.652;13.128;2022-08-21T00:04:05;8.37;;;4.50;;
5543;SDS011;2795;47.652;13.128;2022-08-21T00:06:32;9.63;;;4.70;;
5543;SDS011;2795;47.652;13.128;2022-08-21T00:09:02;16.47;;;6.40;;
5543;SDS011;2795;47.652;13.128;2022-08-21T00:11:32;14.17;;;5.50;;
5543;SDS011;2795;47.652;13.128;2022-08-21T00:13:59;14.70;;;5.63;;
5543;SDS011;2795;47.652;13.128;2022-08-21T00:16:26;14.53;;;5.57;;
5543;SDS011;2795;47.652;13.128;2022-08-21T00:18:52;9.60;;;5.07;;
5543;SDS011;2795;47.652;13.128;2022-08-21T00:21:19;14.03;;;5.30;;
5543;SDS011;2795;47.652;13.128;2022-08-21T00:23:45;20.93;;;6.73;;
5543;SDS011;2795;47.652;13.128;2022-08-21T00:26:12;10.17;;;4.43;;
5543;SDS011;2795;47.652;13.128;2022-08-21T00:28:39;11.03;;;5.10;;
5543;SDS011;2795;47.652;13.128;2022-08-21T00:31:05;18.30;;;5.83;;
5543;SDS011;2795;47.652;13.128;2022-08-21T00:33:33;19.17;;;6.20;;
5543;SDS011;2795;47.652;13.128;2022-08-21T00:36:00;12.13;;;5.50;;
5543;SDS011;2795;47.652;13.128;2022-08-21T00:38:26;18.60;;;6.07;;
5543;SDS011;2795;47.652;13.128;2022-08-21T00:40:54;15.40;;;5.73;;
5543;SDS011;2795;47.652;13.128;2022-08-21T00:43:27;17.63;;;6.40;;
5543;SDS011;2795;47.652;13.128;2022-08-21T00:45:56;13.53;;;5.37;;
5543;SDS011;2795;47.652;13.128;2022-08-21T00:48:23;18.77;;;5.60;;
5543;SDS011;2795;47.652;13.128;2022-08-21T00:50:58;20.50;;;6.10;;
5543;SDS011;2795;47.652;13.128;2022-08-21T00:53:31;13.23;;;5.30;;
5543;SDS011;2795;47.652;13.128;2022-08-21T00:56:00;16.10;;;5.63;;
5543;SDS011;2795;47.652;13.128;2022-08-21T00:58:29;18.60;;;6.47;;
5543;SDS011;2795;47.652;13.128;2022-08-21T01:00:57;20.73;;;6.97;;
5543;SDS011;2795;47.652;13.128;2022-08-21T01:03:25;20.57;;;6.10;;
5543;SDS011;2795;47.652;13.128;2022-08-21T01:05:52;17.53;;;5.30;;
5543;SDS011;2795;47.652;13.128;2022-08-21T01:08:19;15.77;;;5.43;;
5543;SDS011;2795;47.652;13.128;2022-08-21T01:10:47;16.93;;;6.23;;
5543;SDS011;2795;47.652;13.128;2022-08-21T01:13:20;16.00;;;5.20;;
5543;SDS011;2795;47.652;13.128;2022-08-21T01:15:48;22.70;;;5.90;;
5543;SDS011;2795;47.652;13.128;2022-08-21T01:18:16;12.73;;;5.30;;
5543;SDS011;2795;47.652;13.128;2022-08-21T01:23:53;17.70;;;6.03;;
5543;SDS011;2795;47.652;13.128;2022-08-21T01:26:22;18.93;;;5.87;;
5543;SDS011;2795;47.652;13.128;2022-08-21T01:32:03;22.97;;;6.60;;
5543;SDS011;2795;47.652;13.128;2022-08-21T01:34:35;16.53;;;6.60;;
5543;SDS011;2795;47.652;13.128;2022-08-21T01:37:03;15.40;;;6.53;;
5543;SDS011;2795;47.652;13.128;2022-08-21T01:39:30;18.50;;;6.73;;
5543;SDS011;2795;47.652;13.128;2022-08-21T01:41:57;26.30;;;7.83;;
5543;SDS011;2795;47.652;13.128;2022-08-21T01:44:24;19.20;;;7.40;;
5543;SDS011;2795;47.652;13.128;2022-08-21T01:46:51;15.63;;;7.00;;
5543;SDS011;2795;47.652;13.128;2022-08-21T01:49:18;21.50;;;8.80;;
5543;SDS011;2795;47.652;13.128;2022-08-21T01:51:45;25.77;;;8.17;;
5543;SDS011;2795;47.652;13.128;2022-08-21T01:54:11;15.40;;;6.90;;
5543;SDS011;2795;47.652;13.128;2022-08-21T01:56:39;15.67;;;7.10;;
5543;SDS011;2795;47.652;13.128;2022-08-21T01:59:07;21.10;;;7.50;;
5543;SDS011;2795;47.652;13.128;2022-08-21T02:01:34;28.83;;;9.20;;
5543;SDS011;2795;47.652;13.128;2022-08-21T02:04:02;23.57;;;10.00;;
5543;SDS011;2795;47.652;13.128;2022-08-21T02:06:29;18.73;;;7.77;;
5543;SDS011;2795;47.652;13.128;2022-08-21T02:08:55;19.87;;;8.50;;
5543;SDS011;2795;47.652;13.128;2022-08-21T02:11:22;25.30;;;8.33;;
5543;SDS011;2795;47.652;13.128;2022-08-21T02:13:49;25.80;;;8.37;;
5543;SDS011;2795;47.652;13.128;2022-08-21T02:16:15;18.43;;;7.27;;
5543;SDS011;2795;47.652;13.128;2022-08-21T02:18:44;14.83;;;6.83;;
5543;SDS011;2795;47.652;13.128;2022-08-21T02:21:11;17.60;;;6.47;;
5543;SDS011;2795;47.652;13.128;2022-08-21T02:23:37;16.17;;;6.83;;
5543;SDS011;2795;47.652;13.128;2022-08-21T02:26:05;11.33;;;5.60;;
5543;SDS011;2795;47.652;13.128;2022-08-21T02:28:33;11.43;;;5.90;;
5543;SDS011;2795;47.652;13.128;2022-08-21T02:31:01;19.40;;;7.00;;
5543;SDS011;2795;47.652;13.128;2022-08-21T02:33:28;15.27;;;7.00;;
5543;SDS011;2795;47.652;13.128;2022-08-21T02:35:55;22.67;;;7.40;;
5543;SDS011;2795;47.652;13.128;2022-08-21T02:38:23;16.63;;;6.00;;
5543;SDS011;2795;47.652;13.128;2022-08-21T02:40:53;14.97;;;6.53;;
5543;SDS011;2795;47.652;13.128;2022-08-21T02:43:20;14.30;;;6.43;;
5543;SDS011;2795;47.652;13.128;2022-08-21T02:45:48;21.73;;;7.30;;
5543;SDS011;2795;47.652;13.128;2022-08-21T02:48:16;15.63;;;5.97;;
5543;SDS011;2795;47.652;13.128;2022-08-21T02:50:52;20.77;;;7.50;;
5543;SDS011;2795;47.652;13.128;2022-08-21T02:53:39;11.90;;;5.50;;
5543;SDS011;2795;47.652;13.128;2022-08-21T02:56:06;18.60;;;6.97;;
5543;SDS011;2795;47.652;13.128;2022-08-21T02:58:36;10.43;;;6.30;;
5543;SDS011;2795;47.652;13.128;2022-08-21T03:01:05;19.40;;;5.40;;
5543;SDS011;2795;47.652;13.128;2022-08-21T03:03:36;14.50;;;5.10;;
5543;SDS011;2795;47.652;13.128;2022-08-21T03:06:04;17.50;;;6.80;;
5543;SDS011;2795;47.652;13.128;2022-08-21T03:08:31;15.00;;;6.00;;
5543;SDS011;2795;47.652;13.128;2022-08-21T03:10:58;17.43;;;6.83;;
5543;SDS011;2795;47.652;13.128;2022-08-21T03:13:26;23.53;;;7.20;;
5543;SDS011;2795;47.652;13.128;2022-08-21T03:15:53;13.20;;;5.80;;
5543;SDS011;2795;47.652;13.128;2022-08-21T03:18:23;18.60;;;5.90;;
5543;SDS011;2795;47.652;13.128;2022-08-21T03:20:49;11.90;;;5.57;;
5543;SDS011;2795;47.652;13.128;2022-08-21T03:23:16;11.20;;;5.20;;
5543;SDS011;2795;47.652;13.128;2022-08-21T03:25:45;14.63;;;5.83;;
5543;SDS011;2795;47.652;13.128;2022-08-21T03:28:14;13.73;;;5.37;;
5543;SDS011;2795;47.652;13.128;2022-08-21T03:30:45;14.43;;;5.67;;
5543;SDS011;2795;47.652;13.128;2022-08-21T03:33:14;15.73;;;5.90;;
5543;SDS011;2795;47.652;13.128;2022-08-21T03:35:44;14.80;;;6.50;;
5543;SDS011;2795;47.652;13.128;2022-08-21T03:38:12;14.80;;;5.80;;
5543;SDS011;2795;47.652;13.128;2022-08-21T03:40:40;8.80;;;4.93;;
5543;SDS011;2795;47.652;13.128;2022-08-21T03:43:07;9.80;;;4.90;;
5543;SDS011;2795;47.652;13.128;2022-08-21T03:45:36;16.90;;;6.37;;
5543;SDS011;2795;47.652;13.128;2022-08-21T03:48:03;13.37;;;6.33;;
5543;SDS011;2795;47.652;13.128;2022-08-21T03:50:33;13.87;;;5.43;;
5543;SDS011;2795;47.652;13.128;2022-08-21T03:53:06;15.93;;;6.40;;
5543;SDS011;2795;47.652;13.128;2022-08-21T03:55:43;9.73;;;5.97;;
5543;SDS011;2795;47.652;13.128;2022-08-21T03:58:12;8.90;;;4.67;;
5543;SDS011;2795;47.652;13.128;2022-08-21T04:00:42;14.60;;;6.07;;
5543;SDS011;2795;47.652;13.128;2022-08-21T04:03:10;16.97;;;6.13;;
5543;SDS011;2795;47.652;13.128;2022-08-21T04:05:36;16.77;;;6.20;;
5543;SDS011;2795;47.652;13.128;2022-08-21T04:08:04;10.40;;;5.23;;
5543;SDS011;2795;47.652;13.128;2022-08-21T04:10:32;12.03;;;6.13;;
5543;SDS011;2795;47.652;13.128;2022-08-21T04:13:00;14.13;;;6.20;;
5543;SDS011;2795;47.652;13.128;2022-08-21T04:15:27;12.40;;;6.17;;
5543;SDS011;2795;47.652;13.128;2022-08-21T04:17:54;8.07;;;4.43;;
5543;SDS011;2795;47.652;13.128;2022-08-21T04:20:21;8.33;;;4.60;;
5543;SDS011;2795;47.652;13.128;2022-08-21T04:22:48;14.53;;;5.93;;
5543;SDS011;2795;47.652;13.128;2022-08-21T04:25:17;13.13;;;5.37;;
5543;SDS011;2795;47.652;13.128;2022-08-21T04:27:45;19.30;;;6.63;;
5543;SDS011;2795;47.652;13.128;2022-08-21T04:30:12;11.83;;;5.80;;
5543;SDS011;2795;47.652;13.128;2022-08-21T04:32:47;13.47;;;5.83;;
5543;SDS011;2795;47.652;13.128;2022-08-21T04:35:15;10.57;;;5.60;;
5543;SDS011;2795;47.652;13.128;2022-08-21T04:37:43;12.03;;;5.70;;
5543;SDS011;2795;47.652;13.128;2022-08-21T04:40:11;13.37;;;6.57;;
5543;SDS011;2795;47.652;13.128;2022-08-21T04:42:43;13.97;;;7.47;;
5543;SDS011;2795;47.652;13.128;2022-08-21T04:45:23;13.93;;;6.27;;
5543;SDS011;2795;47.652;13.128;2022-08-21T04:47:52;12.30;;;6.80;;
5543;SDS011;2795;47.652;13.128;2022-08-21T04:50:21;15.80;;;7.20;;
5543;SDS011;2795;47.652;13.128;2022-08-21T04:52:50;12.20;;;5.83;;
5543;SDS011;2795;47.652;13.128;2022-08-21T04:55:16;10.80;;;6.00;;
5543;SDS011;2795;47.652;13.128;2022-08-21T04:57:44;21.83;;;7.20;;
5543;SDS011;2795;47.652;13.128;2022-08-21T05:00:14;12.30;;;6.03;;
5543;SDS011;2795;47.652;13.128;2022-08-21T05:02:45;15.83;;;6.50;;
5543;SDS011;2795;47.652;13.128;2022-08-21T05:05:13;13.63;;;5.50;;
5543;SDS011;2795;47.652;13.128;2022-08-21T05:07:41;15.33;;;6.77;;
5543;SDS011;2795;47.652;13.128;2022-08-21T05:10:09;15.10;;;6.57;;
5543;SDS011;2795;47.652;13.128;2022-08-21T05:12:39;9.63;;;5.40;;
5543;SDS011;2795;47.652;13.128;2022-08-21T05:15:08;9.57;;;5.53;;
5543;SDS011;2795;47.652;13.128;2022-08-21T05:17:39;17.53;;;7.13;;
5543;SDS011;2795;47.652;13.128;2022-08-21T05:20:07;15.70;;;6.57;;
5543;SDS011;2795;47.652;13.128;2022-08-21T05:22:34;15.20;;;6.00;;
5543;SDS011;2795;47.652;13.128;2022-08-21T05:25:01;11.93;;;4.90;;
5543;SDS011;2795;47.652;13.128;2022-08-21T05:27:35;12.87;;;4.90;;
5543;SDS011;2795;47.652;13.128;2022-08-21T05:30:04;14.83;;;4.67;;
5543;SDS011;2795;47.652;13.128;2022-08-21T05:32:34;10.10;;;4.50;;
5543;SDS011;2795;47.652;13.128;2022-08-21T05:35:02;12.20;;;4.60;;
5543;SDS011;2795;47.652;13.128;2022-08-21T05:37:30;12.57;;;5.10;;
5543;SDS011;2795;47.652;13.128;2022-08-21T05:39:58;9.37;;;5.00;;
5543;SDS011;2795;47.652;13.128;2022-08-21T05:42:45;9.17;;;4.77;;
5543;SDS011;2795;47.652;13.128;2022-08-21T05:45:20;8.30;;;4.50;;
5543;SDS011;2795;47.652;13.128;2022-08-21T05:48:09;7.03;;;3.53;;
5543;SDS011;2795;47.652;13.128;2022-08-21T05:50:38;13.60;;;4.93;;
5543;SDS011;2795;47.652;13.128;2022-08-21T05:53:05;16.53;;;4.23;;
5543;SDS011;2795;47.652;13.128;2022-08-21T05:55:33;8.60;;;3.70;;
5543;SDS011;2795;47.652;13.128;2022-08-21T05:58:00;11.30;;;4.03;;
5543;SDS011;2795;47.652;13.128;2022-08-21T06:00:27;11.37;;;4.07;;
5543;SDS011;2795;47.652;13.128;2022-08-21T06:02:53;9.07;;;3.83;;
5543;SDS011;2795;47.652;13.128;2022-08-21T06:05:20;5.40;;;3.20;;
5543;SDS011;2795;47.652;13.128;2022-08-21T06:08:02;13.07;;;4.70;;
5543;SDS011;2795;47.652;13.128;2022-08-21T06:10:29;9.03;;;4.40;;
5543;SDS011;2795;47.652;13.128;2022-08-21T06:12:56;15.53;;;4.90;;
5543;SDS011;2795;47.652;13.128;2022-08-21T06:15:23;24.97;;;6.97;;
5543;SDS011;2795;47.652;13.128;2022-08-21T06:17:49;16.50;;;6.13;;
5543;SDS011;2795;47.652;13.128;2022-08-21T06:20:16;10.23;;;4.87;;
5543;SDS011;2795;47.652;13.128;2022-08-21T06:22:42;11.17;;;4.70;;
5543;SDS011;2795;47.652;13.128;2022-08-21T06:25:09;9.47;;;3.83;;
5543;SDS011;2795;47.652;13.128;2022-08-21T06:27:36;16.13;;;4.73;;
5543;SDS011;2795;47.652;13.128;2022-08-21T06:30:04;9.73;;;4.10;;
5543;SDS011;2795;47.652;13.128;2022-08-21T06:32:31;8.20;;;4.23;;
5543;SDS011;2795;47.652;13.128;2022-08-21T06:34:58;8.60;;;3.63;;
5543;SDS011;2795;47.652;13.128;2022-08-21T06:37:25;5.20;;;3.57;;
5543;SDS011;2795;47.652;13.128;2022-08-21T06:39:51;11.13;;;3.90;;
5543;SDS011;2795;47.652;13.128;2022-08-21T06:42:18;10.30;;;3.97;;
5543;SDS011;2795;47.652;13.128;2022-08-21T06:44:45;8.13;;;3.60;;
5543;SDS011;2795;47.652;13.128;2022-08-21T06:47:11;11.23;;;5.20;;
5543;SDS011;2795;47.652;13.128;2022-08-21T06:49:38;9.70;;;4.20;;
5543;SDS011;2795;47.652;13.128;2022-08-21T06:52:12;8.33;;;3.53;;
5543;SDS011;2795;47.652;13.128;2022-08-21T06:54:39;10.53;;;3.80;;
5543;SDS011;2795;47.652;13.128;2022-08-21T06:57:06;16.80;;;4.23;;
5543;SDS011;2795;47.652;13.128;2022-08-21T06:59:32;7.27;;;3.40;;
5543;SDS011;2795;47.652;13.128;2022-08-21T07:01:59;5.10;;;3.70;;
5543;SDS011;2795;47.652;13.128;2022-08-21T07:04:26;7.40;;;4.00;;
5543;SDS011;2795;47.652;13.128;2022-08-21T07:06:52;7.70;;;4.07;;
5543;SDS011;2795;47.652;13.128;2022-08-21T07:09:19;9.47;;;4.47;;
5543;SDS011;2795;47.652;13.128;2022-08-21T07:11:50;4.80;;;3.37;;
5543;SDS011;2795;47.652;13.128;2022-08-21T07:14:18;9.13;;;4.03;;
5543;SDS011;2795;47.652;13.128;2022-08-21T07:16:45;7.00;;;3.70;;
5543;SDS011;2795;47.652;13.128;2022-08-21T07:19:12;10.67;;;3.87;;
5543;SDS011;2795;47.652;13.128;2022-08-21T07:21:39;15.90;;;5.13;;
5543;SDS011;2795;47.652;13.128;2022-08-21T07:24:06;8.60;;;4.03;;
5543;SDS011;2795;47.652;13.128;2022-08-21T07:26:32;8.37;;;3.77;;
5543;SDS011;2795;47.652;13.128;2022-08-21T07:28:59;6.73;;;3.60;;
5543;SDS011;2795;47.652;13.128;2022-08-21T07:31:26;10.60;;;4.27;;
5543;SDS011;2795;47.652;13.128;2022-08-21T07:33:53;9.87;;;4.10;;
5543;SDS011;2795;47.652;13.128;2022-08-21T07:36:20;8.03;;;3.87;;
5543;SDS011;2795;47.652;13.128;2022-08-21T07:38:46;6.60;;;4.20;;
5543;SDS011;2795;47.652;13.128;2022-08-21T07:41:19;7.40;;;3.87;;
5543;SDS011;2795;47.652;13.128;2022-08-21T07:43:51;6.87;;;4.10;;
5543;SDS011;2795;47.652;13.128;2022-08-21T07:46:18;6.83;;;4.33;;
5543;SDS011;2795;47.652;13.128;2022-08-21T07:48:45;9.10;;;4.83;;
5543;SDS011;2795;47.652;13.128;2022-08-21T07:51:13;9.67;;;4.47;;
5543;SDS011;2795;47.652;13.128;2022-08-21T07:53:41;12.57;;;4.43;;
5543;SDS011;2795;47.652;13.128;2022-08-21T07:56:08;14.90;;;4.07;;
5543;SDS011;2795;47.652;13.128;2022-08-21T07:58:34;13.43;;;4.33;;
5543;SDS011;2795;47.652;13.128;2022-08-21T08:01:01;7.33;;;3.67;;
5543;SDS011;2795;47.652;13.128;2022-08-21T08:03:28;6.77;;;3.40;;
5543;SDS011;2795;47.652;13.128;2022-08-21T08:05:56;13.03;;;4.17;;
5543;SDS011;2795;47.652;13.128;2022-08-21T08:08:23;6.13;;;3.60;;
5543;SDS011;2795;47.652;13.128;2022-08-21T08:10:50;7.60;;;3.73;;
5543;SDS011;2795;47.652;13.128;2022-08-21T08:13:17;9.37;;;3.60;;
5543;SDS011;2795;47.652;13.128;2022-08-21T08:15:44;10.07;;;4.43;;
5543;SDS011;2795;47.652;13.128;2022-08-21T08:18:11;6.80;;;3.70;;
5543;SDS011;2795;47.652;13.128;2022-08-21T08:20:37;9.23;;;4.20;;
5543;SDS011;2795;47.652;13.128;2022-08-21T08:23:04;8.53;;;4.03;;
5543;SDS011;2795;47.652;13.128;2022-08-21T08:25:30;7.93;;;3.90;;
5543;SDS011;2795;47.652;13.128;2022-08-21T08:28:02;9.80;;;3.63;;
5543;SDS011;2795;47.652;13.128;2022-08-21T08:30:42;12.00;;;4.90;;
5543;SDS011;2795;47.652;13.128;2022-08-21T08:33:09;12.27;;;4.17;;
5543;SDS011;2795;47.652;13.128;2022-08-21T08:35:36;9.30;;;4.93;;
5543;SDS011;2795;47.652;13.128;2022-08-21T08:38:04;14.77;;;4.50;;
5543;SDS011;2795;47.652;13.128;2022-08-21T08:40:35;9.47;;;3.40;;
5543;SDS011;2795;47.652;13.128;2022-08-21T08:43:08;12.80;;;4.37;;
5543;SDS011;2795;47.652;13.128;2022-08-21T08:45:40;9.50;;;3.90;;
5543;SDS011;2795;47.652;13.128;2022-08-21T08:48:10;21.70;;;5.40;;
5543;SDS011;2795;47.652;13.128;2022-08-21T08:53:15;10.17;;;4.20;;
5543;SDS011;2795;47.652;13.128;2022-08-21T08:55:46;10.17;;;4.13;;
5543;SDS011;2795;47.652;13.128;2022-08-21T09:00:51;9.90;;;3.73;;
5543;SDS011;2795;47.652;13.128;2022-08-21T09:03:19;5.07;;;3.63;;
5543;SDS011;2795;47.652;13.128;2022-08-21T09:11:23;21.97;;;5.57;;
5543;SDS011;2795;47.652;13.128;2022-08-21T09:19:45;13.50;;;4.60;;
5543;SDS011;2795;47.652;13.128;2022-08-21T09:25:21;9.70;;;4.17;;
5543;SDS011;2795;47.652;13.128;2022-08-21T09:27:49;12.20;;;4.33;;
5543;SDS011;2795;47.652;13.128;2022-08-21T09:30:17;8.70;;;3.60;;
5543;SDS011;2795;47.652;13.128;2022-08-21T09:32:44;7.00;;;3.80;;
5543;SDS011;2795;47.652;13.128;2022-08-21T09:35:18;10.73;;;4.30;;
5543;SDS011;2795;47.652;13.128;2022-08-21T09:37:48;11.73;;;4.23;;
5543;SDS011;2795;47.652;13.128;2022-08-21T09:45:40;43.27;;;8.13;;
5543;SDS011;2795;47.652;13.128;2022-08-21T09:48:09;7.70;;;4.03;;
5543;SDS011;2795;47.652;13.128;2022-08-21T09:50:40;9.97;;;4.20;;
5543;SDS011;2795;47.652;13.128;2022-08-21T09:53:15;14.27;;;5.23;;
5543;SDS011;2795;47.652;13.128;2022-08-21T09:55:51;9.03;;;4.30;;
5543;SDS011;2795;47.652;13.128;2022-08-21T09:58:39;12.40;;;4.97;;
5543;SDS011;2795;47.652;13.128;2022-08-21T10:01:28;16.93;;;5.20;;
5543;SDS011;2795;47.652;13.128;2022-08-21T10:04:03;13.63;;;5.07;;
5543;SDS011;2795;47.652;13.128;2022-08-21T10:06:34;13.20;;;4.87;;
5543;SDS011;2795;47.652;13.128;2022-08-21T10:09:14;16.10;;;5.17;;
5543;SDS011;2795;47.652;13.128;2022-08-21T10:11:59;6.23;;;3.30;;
5543;SDS011;2795;47.652;13.128;2022-08-21T10:15:02;12.40;;;4.30;;
5543;SDS011;2795;47.652;13.128;2022-08-21T10:23:05;11.47;;;4.10;;
5543;SDS011;2795;47.652;13.128;2022-08-21T10:28:42;12.30;;;4.33;;
5543;SDS011;2795;47.652;13.128;2022-08-21T10:37:07;6.20;;;3.70;;
5543;SDS011;2795;47.652;13.128;2022-08-21T10:42:24;20.23;;;5.60;;
5543;SDS011;2795;47.652;13.128;2022-08-21T10:47:46;10.53;;;4.30;;
5543;SDS011;2795;47.652;13.128;2022-08-21T10:58:19;13.53;;;5.30;;
5543;SDS011;2795;47.652;13.128;2022-08-21T11:00:51;14.47;;;5.00;;
5543;SDS011;2795;47.652;13.128;2022-08-21T11:03:21;12.00;;;4.10;;
5543;SDS011;2795;47.652;13.128;2022-08-21T11:05:54;6.20;;;4.07;;
5543;SDS011;2795;47.652;13.128;2022-08-21T11:13:27;8.80;;;3.90;;
5543;SDS011;2795;47.652;13.128;2022-08-21T11:18:42;11.87;;;4.50;;
5543;SDS011;2795;47.652;13.128;2022-08-21T11:24:17;12.03;;;4.63;;
5543;SDS011;2795;47.652;13.128;2022-08-21T11:26:59;10.33;;;3.53;;
5543;SDS011;2795;47.652;13.128;2022-08-21T11:29:29;7.93;;;3.90;;
5543;SDS011;2795;47.652;13.128;2022-08-21T11:40:29;6.17;;;3.30;;
5543;SDS011;2795;47.652;13.128;2022-08-21T11:45:50;10.37;;;3.63;;
5543;SDS011;2795;47.652;13.128;2022-08-21T11:50:52;6.53;;;3.67;;
5543;SDS011;2795;47.652;13.128;2022-08-21T11:55:56;10.77;;;4.17;;
5543;SDS011;2795;47.652;13.128;2022-08-21T11:58:30;10.87;;;4.33;;
5543;SDS011;2795;47.652;13.128;2022-08-21T12:00:59;10.80;;;3.40;;
5543;SDS011;2795;47.652;13.128;2022-08-21T12:03:31;10.47;;;4.13;;
5543;SDS011;2795;47.652;13.128;2022-08-21T12:06:01;8.30;;;3.40;;
5543;SDS011;2795;47.652;13.128;2022-08-21T12:08:36;7.10;;;4.10;;
5543;SDS011;2795;47.652;13.128;2022-08-21T12:13:54;13.03;;;4.40;;
5543;SDS011;2795;47.652;13.128;2022-08-21T12:19:06;8.97;;;3.77;;
5543;SDS011;2795;47.652;13.128;2022-08-21T12:21:47;4.67;;;3.70;;
5543;SDS011;2795;47.652;13.128;2022-08-21T12:24:20;12.30;;;4.57;;
5543;SDS011;2795;47.652;13.128;2022-08-21T12:27:00;8.10;;;4.63;;
5543;SDS011;2795;47.652;13.128;2022-08-21T12:29:38;9.90;;;4.47;;
5543;SDS011;2795;47.652;13.128;2022-08-21T12:34:48;9.47;;;4.20;;
5543;SDS011;2795;47.652;13.128;2022-08-21T12:39:49;8.43;;;4.00;;
5543;SDS011;2795;47.652;13.128;2022-08-21T12:42:19;12.40;;;4.30;;
5543;SDS011;2795;47.652;13.128;2022-08-21T12:44:53;13.73;;;4.77;;
5543;SDS011;2795;47.652;13.128;2022-08-21T12:55:46;10.70;;;4.20;;
5543;SDS011;2795;47.652;13.128;2022-08-21T12:58:17;15.50;;;5.03;;
5543;SDS011;2795;47.652;13.128;2022-08-21T13:00:49;33.60;;;6.93;;
5543;SDS011;2795;47.652;13.128;2022-08-21T13:03:17;9.97;;;3.97;;
5543;SDS011;2795;47.652;13.128;2022-08-21T13:05:44;10.83;;;3.80;;
5543;SDS011;2795;47.652;13.128;2022-08-21T13:08:11;16.10;;;5.07;;
5543;SDS011;2795;47.652;13.128;2022-08-21T13:10:40;19.97;;;5.67;;
5543;SDS011;2795;47.652;13.128;2022-08-21T13:13:09;18.70;;;5.97;;
5543;SDS011;2795;47.652;13.128;2022-08-21T13:15:49;12.43;;;5.17;;
5543;SDS011;2795;47.652;13.128;2022-08-21T13:18:24;6.73;;;3.70;;
5543;SDS011;2795;47.652;13.128;2022-08-21T13:21:02;22.20;;;5.93;;
5543;SDS011;2795;47.652;13.128;2022-08-21T13:23:30;13.80;;;4.63;;
5543;SDS011;2795;47.652;13.128;2022-08-21T13:25:57;15.10;;;5.20;;
5543;SDS011;2795;47.652;13.128;2022-08-21T13:28:25;10.20;;;4.43;;
5543;SDS011;2795;47.652;13.128;2022-08-21T13:30:59;10.43;;;4.07;;
5543;SDS011;2795;47.652;13.128;2022-08-21T13:33:27;12.83;;;4.20;;
5543;SDS011;2795;47.652;13.128;2022-08-21T13:38:35;12.37;;;4.60;;
5543;SDS011;2795;47.652;13.128;2022-08-21T13:43:33;16.27;;;4.93;;
5543;SDS011;2795;47.652;13.128;2022-08-21T13:46:02;11.23;;;4.03;;
5543;SDS011;2795;47.652;13.128;2022-08-21T13:48:34;14.70;;;4.60;;
5543;SDS011;2795;47.652;13.128;2022-08-21T13:51:02;8.73;;;3.97;;
5543;SDS011;2795;47.652;13.128;2022-08-21T13:53:30;19.37;;;5.17;;
5543;SDS011;2795;47.652;13.128;2022-08-21T13:56:06;6.60;;;3.77;;
5543;SDS011;2795;47.652;13.128;2022-08-21T13:58:41;8.80;;;4.17;;
5543;SDS011;2795;47.652;13.128;2022-08-21T14:01:18;16.70;;;5.17;;
5543;SDS011;2795;47.652;13.128;2022-08-21T14:03:50;15.30;;;4.73;;
5543;SDS011;2795;47.652;13.128;2022-08-21T14:06:23;11.30;;;4.00;;
5543;SDS011;2795;47.652;13.128;2022-08-21T14:11:34;6.90;;;3.80;;
5543;SDS011;2795;47.652;13.128;2022-08-21T14:14:03;9.43;;;4.07;;
5543;SDS011;2795;47.652;13.128;2022-08-21T14:16:42;13.03;;;4.60;;
5543;SDS011;2795;47.652;13.128;2022-08-21T14:19:18;11.57;;;4.17;;
5543;SDS011;2795;47.652;13.128;2022-08-21T14:21:49;22.27;;;6.30;;
5543;SDS011;2795;47.652;13.128;2022-08-21T14:26:50;17.17;;;4.90;;
5543;SDS011;2795;47.652;13.128;2022-08-21T14:29:19;9.63;;;3.87;;
5543;SDS011;2795;47.652;13.128;2022-08-21T14:31:52;9.47;;;3.80;;
5543;SDS011;2795;47.652;13.128;2022-08-21T14:34:26;9.53;;;4.00;;
5543;SDS011;2795;47.652;13.128;2022-08-21T14:37:00;13.63;;;4.37;;
5543;SDS011;2795;47.652;13.128;2022-08-21T14:39:27;8.40;;;4.00;;
5543;SDS011;2795;47.652;13.128;2022-08-21T14:42:00;7.43;;;3.67;;
5543;SDS011;2795;47.652;13.128;2022-08-21T14:44:27;7.17;;;3.70;;
5543;SDS011;2795;47.652;13.128;2022-08-21T14:46:54;9.57;;;3.63;;
5543;SDS011;2795;47.652;13.128;2022-08-21T14:49:23;21.20;;;5.50;;
5543;SDS011;2795;47.652;13.128;2022-08-21T14:51:53;9.63;;;4.20;;
5543;SDS011;2795;47.652;13.128;2022-08-21T14:54:24;8.23;;;4.27;;
5543;SDS011;2795;47.652;13.128;2022-08-21T14:56:57;16.73;;;4.80;;
5543;SDS011;2795;47.652;13.128;2022-08-21T14:59:26;9.97;;;4.37;;
5543;SDS011;2795;47.652;13.128;2022-08-21T15:01:52;9.13;;;3.87;;
5543;SDS011;2795;47.652;13.128;2022-08-21T15:04:19;9.07;;;3.70;;
5543;SDS011;2795;47.652;13.128;2022-08-21T15:06:45;7.87;;;4.00;;
5543;SDS011;2795;47.652;13.128;2022-08-21T15:09:12;6.40;;;4.00;;
5543;SDS011;2795;47.652;13.128;2022-08-21T15:11:39;8.77;;;4.40;;
5543;SDS011;2795;47.652;13.128;2022-08-21T15:14:09;16.50;;;5.50;;
5543;SDS011;2795;47.652;13.128;2022-08-21T15:16:37;6.43;;;4.00;;
5543;SDS011;2795;47.652;13.128;2022-08-21T15:19:04;5.23;;;3.73;;
5543;SDS011;2795;47.652;13.128;2022-08-21T15:21:30;6.63;;;3.90;;
5543;SDS011;2795;47.652;13.128;2022-08-21T15:23:57;11.13;;;4.93;;
5543;SDS011;2795;47.652;13.128;2022-08-21T15:26:24;8.00;;;4.20;;
5543;SDS011;2795;47.652;13.128;2022-08-21T15:28:50;9.57;;;4.13;;
5543;SDS011;2795;47.652;13.128;2022-08-21T15:31:17;7.67;;;4.00;;
5543;SDS011;2795;47.652;13.128;2022-08-21T15:33:44;9.53;;;4.20;;
5543;SDS011;2795;47.652;13.128;2022-08-21T15:36:10;19.47;;;4.87;;
5543;SDS011;2795;47.652;13.128;2022-08-21T15:38:37;5.60;;;3.73;;
5543;SDS011;2795;47.652;13.128;2022-08-21T15:41:04;6.10;;;3.70;;
5543;SDS011;2795;47.652;13.128;2022-08-21T15:46:14;9.83;;;4.47;;
5543;SDS011;2795;47.652;13.128;2022-08-21T15:48:42;4.23;;;3.77;;
5543;SDS011;2795;47.652;13.128;2022-08-21T15:51:09;8.03;;;3.87;;
5543;SDS011;2795;47.652;13.128;2022-08-21T15:53:36;7.33;;;3.37;;
5543;SDS011;2795;47.652;13.128;2022-08-21T15:56:06;8.93;;;4.30;;
5543;SDS011;2795;47.652;13.128;2022-08-21T15:58:38;10.37;;;4.43;;
5543;SDS011;2795;47.652;13.128;2022-08-21T16:01:05;4.93;;;3.50;;
5543;SDS011;2795;47.652;13.128;2022-08-21T16:03:31;8.17;;;3.97;;
5543;SDS011;2795;47.652;13.128;2022-08-21T16:05:59;8.97;;;3.67;;
5543;SDS011;2795;47.652;13.128;2022-08-21T16:08:25;4.80;;;3.33;;
5543;SDS011;2795;47.652;13.128;2022-08-21T16:10:52;9.67;;;3.60;;
5543;SDS011;2795;47.652;13.128;2022-08-21T16:13:26;12.70;;;4.33;;
5543;SDS011;2795;47.652;13.128;2022-08-21T16:15:54;8.03;;;3.80;;
5543;SDS011;2795;47.652;13.128;2022-08-21T16:18:21;12.10;;;4.63;;
5543;SDS011;2795;47.652;13.128;2022-08-21T16:20:49;9.00;;;4.13;;
5543;SDS011;2795;47.652;13.128;2022-08-21T16:23:15;11.37;;;4.30;;
5543;SDS011;2795;47.652;13.128;2022-08-21T16:25:42;12.20;;;4.60;;
5543;SDS011;2795;47.652;13.128;2022-08-21T16:28:09;9.60;;;4.47;;
5543;SDS011;2795;47.652;13.128;2022-08-21T16:30:38;8.63;;;4.23;;
5543;SDS011;2795;47.652;13.128;2022-08-21T16:33:05;10.03;;;4.20;;
5543;SDS011;2795;47.652;13.128;2022-08-21T16:35:33;6.23;;;3.67;;
5543;SDS011;2795;47.652;13.128;2022-08-21T16:38:00;13.37;;;4.73;;
5543;SDS011;2795;47.652;13.128;2022-08-21T16:40:27;6.77;;;3.83;;
5543;SDS011;2795;47.652;13.128;2022-08-21T16:42:54;8.33;;;4.40;;
5543;SDS011;2795;47.652;13.128;2022-08-21T16:45:21;9.73;;;4.33;;
5543;SDS011;2795;47.652;13.128;2022-08-21T16:47:48;11.03;;;4.07;;
5543;SDS011;2795;47.652;13.128;2022-08-21T16:50:19;6.70;;;3.80;;
5543;SDS011;2795;47.652;13.128;2022-08-21T16:52:47;17.70;;;4.70;;
5543;SDS011;2795;47.652;13.128;2022-08-21T16:55:14;10.07;;;4.30;;
5543;SDS011;2795;47.652;13.128;2022-08-21T16:57:40;9.27;;;4.20;;
5543;SDS011;2795;47.652;13.128;2022-08-21T17:00:07;12.93;;;4.40;;
5543;SDS011;2795;47.652;13.128;2022-08-21T17:02:41;11.17;;;4.00;;
5543;SDS011;2795;47.652;13.128;2022-08-21T17:05:19;16.10;;;4.50;;